createdAt,value
2023-02-04T00:03:04.640Z,-0.73
2023-02-04T00:07:06.485Z,-0.69
2023-02-04T00:11:08.535Z,-0.85
2023-02-04T00:15:11.010Z,-0.81
2023-02-04T00:19:12.864Z,-0.89
2023-02-04T00:23:15.026Z,-0.79
2023-02-04T00:27:17.034Z,-0.81
2023-02-04T00:31:19.228Z,-0.87
2023-02-04T00:35:21.801Z,-0.86
2023-02-04T00:39:24.114Z,-0.93
2023-02-04T00:43:26.243Z,-0.96
2023-02-04T00:47:28.454Z,-0.99
2023-02-04T00:51:31.612Z,-0.97
2023-02-04T00:55:34.304Z,-1.02
2023-02-04T00:59:36.398Z,-0.99
2023-02-04T01:03:38.533Z,-0.87
2023-02-04T01:07:40.624Z,-0.98
2023-02-04T01:11:42.770Z,-0.94
2023-02-04T01:15:45.134Z,-0.93
2023-02-04T01:19:47.862Z,-1.01
2023-02-04T01:23:50.250Z,-1.02
2023-02-04T01:27:52.497Z,-0.72
2023-02-04T01:31:54.587Z,-0.94
2023-02-04T01:35:56.661Z,-0.59
2023-02-04T01:39:58.722Z,-0.69
2023-02-04T01:44:00.875Z,-0.92
2023-02-04T01:48:06.618Z,-0.99
2023-02-04T01:52:10.819Z,-0.73
2023-02-04T01:56:20.031Z,-0.90
2023-02-04T02:00:28.366Z,-0.75
2023-02-04T02:04:33.090Z,-0.88
2023-02-04T02:08:37.849Z,-0.80
2023-02-04T02:12:40.799Z,-0.98
2023-02-04T02:16:43.829Z,-0.96
2023-02-04T02:20:47.442Z,-0.78
2023-02-04T02:24:49.409Z,-0.92
2023-02-04T02:28:51.370Z,-0.87
2023-02-04T02:32:54.193Z,-0.84
2023-02-04T02:36:58.200Z,-0.82
2023-02-04T02:41:00.347Z,-0.83
2023-02-04T02:45:11.257Z,-0.92
2023-02-04T02:49:16.820Z,-0.79
2023-02-04T02:53:20.829Z,-0.84
2023-02-04T02:57:24.526Z,-0.79
2023-02-04T03:01:27.280Z,-0.87
2023-02-04T03:05:34.208Z,-0.79
2023-02-04T03:09:36.773Z,-0.79
2023-02-04T03:13:39.844Z,-0.82
2023-02-04T03:17:43.052Z,-0.80
2023-02-04T03:21:45.896Z,-0.78
2023-02-04T03:25:47.897Z,-0.82
2023-02-04T03:29:49.868Z,-0.90
2023-02-04T03:33:51.842Z,-0.84
2023-02-04T03:37:53.836Z,-0.80
2023-02-04T03:41:55.472Z,-0.83
2023-02-04T03:45:57.530Z,-0.84
2023-02-04T03:49:59.212Z,-0.88
2023-02-04T03:54:01.136Z,-0.90
2023-02-04T03:58:03.867Z,-0.91
2023-02-04T04:02:06.202Z,-0.96
2023-02-04T04:06:09.992Z,-1.09
2023-02-04T04:10:12.545Z,-1.11
2023-02-04T04:14:14.638Z,-1.28
2023-02-04T04:18:17.012Z,-1.25
2023-02-04T04:22:19.211Z,-1.35
2023-02-04T04:26:21.200Z,-1.31
2023-02-04T04:30:23.355Z,-1.29
2023-02-04T04:34:25.327Z,-1.34
2023-02-04T04:38:27.278Z,-1.37
2023-02-04T04:42:29.227Z,-1.34
2023-02-04T04:46:31.217Z,-1.31
2023-02-04T04:50:33.515Z,-1.14
2023-02-04T04:54:35.760Z,-1.14
2023-02-04T04:58:37.722Z,-1.11
2023-02-04T05:02:39.647Z,-1.11
2023-02-04T05:06:41.840Z,-1.01
2023-02-04T05:10:44.088Z,-1.08
2023-02-04T05:14:46.081Z,-1.12
2023-02-04T05:18:48.122Z,-0.91
2023-02-04T05:22:50.375Z,-0.94
2023-02-04T05:26:52.408Z,-1.04
2023-02-04T05:30:54.493Z,-0.91
2023-02-04T05:34:56.502Z,-1.06
2023-02-04T05:38:58.453Z,-0.94
2023-02-04T05:43:00.524Z,-0.76
2023-02-04T05:47:02.596Z,-0.93
2023-02-04T05:51:04.640Z,-0.84
2023-02-04T05:55:07.775Z,-0.84
2023-02-04T05:59:09.746Z,-0.70
2023-02-04T06:03:11.399Z,-0.91
2023-02-04T06:07:13.525Z,-0.95
2023-02-04T06:11:15.654Z,-0.91
2023-02-04T06:15:17.634Z,-0.88
2023-02-04T06:19:19.663Z,-1.00
2023-02-04T06:23:21.620Z,-0.97
2023-02-04T06:27:23.941Z,-0.78
2023-02-04T06:31:26.038Z,-0.85
2023-02-04T06:35:28.099Z,-0.91
2023-02-04T06:39:30.047Z,-1.13
2023-02-04T06:43:32.127Z,-1.26
2023-02-04T06:47:34.153Z,-1.16
2023-02-04T06:51:36.224Z,-1.22
2023-02-04T06:55:38.954Z,-1.43
2023-02-04T06:59:43.153Z,-1.30
2023-02-04T07:03:45.100Z,-1.32
2023-02-04T07:07:47.159Z,-1.38
2023-02-04T07:11:49.132Z,-1.59
2023-02-04T07:15:52.895Z,-1.40
2023-02-04T07:19:54.893Z,-1.59
2023-02-04T07:23:56.984Z,-1.53
2023-02-04T07:27:59.410Z,-1.66
2023-02-04T07:32:01.625Z,-1.77
2023-02-04T07:36:04.152Z,-1.71
2023-02-04T07:40:06.732Z,-1.70
2023-02-04T07:44:08.651Z,-1.69
2023-02-04T07:48:11.007Z,-1.70
2023-02-04T07:52:13.138Z,-1.61
2023-02-04T07:56:15.236Z,-1.55
2023-02-04T08:00:17.071Z,-1.62
2023-02-04T08:04:19.074Z,-1.58
2023-02-04T08:08:21.039Z,-1.43
2023-02-04T08:12:23.018Z,-1.28
2023-02-04T08:16:25.217Z,-1.28
2023-02-04T08:20:27.512Z,-1.38
2023-02-04T08:24:29.440Z,-1.42
2023-02-04T08:28:31.558Z,-1.34
2023-02-04T08:32:33.518Z,-1.41
2023-02-04T08:36:35.589Z,-1.43
2023-02-04T08:40:37.559Z,-1.43
2023-02-04T08:44:39.678Z,-1.30
2023-02-04T08:48:41.679Z,-1.47
2023-02-04T08:52:43.634Z,-1.41
2023-02-04T08:56:45.677Z,-1.27
2023-02-04T09:00:47.734Z,-1.04
2023-02-04T09:04:49.885Z,-1.03
2023-02-04T09:08:51.806Z,-1.04
2023-02-04T09:12:56.101Z,-1.14
2023-02-04T09:16:58.213Z,-0.87
2023-02-04T09:21:00.225Z,-0.93
2023-02-04T09:25:02.178Z,-0.83
2023-02-04T09:29:04.130Z,-0.83
2023-02-04T09:33:06.165Z,-0.98
2023-02-04T09:37:08.105Z,-0.87
2023-02-04T09:41:12.846Z,-0.72
2023-02-04T09:45:18.571Z,-0.74
2023-02-04T09:49:20.651Z,-0.71
2023-02-04T09:53:24.736Z,-0.68
2023-02-04T09:57:28.001Z,-0.30
2023-02-04T10:01:30.010Z,-0.46
2023-02-04T10:05:34.357Z,-0.65
2023-02-04T10:09:36.543Z,-0.42
2023-02-04T10:13:50.497Z,-0.43
2023-02-04T10:17:58.074Z,-0.72
2023-02-04T10:22:00.547Z,-0.81
2023-02-04T10:26:04.135Z,-0.55
2023-02-04T10:30:06.479Z,-0.76
2023-02-04T10:34:21.739Z,-0.50
2023-02-04T10:38:23.962Z,-0.45
2023-02-04T10:42:28.124Z,-0.04
2023-02-04T10:46:32.018Z,0.05
2023-02-04T10:50:34.385Z,-0.25
2023-02-04T10:54:38.979Z,0.04
2023-02-04T10:58:41.066Z,-0.28
2023-02-04T11:02:55.019Z,-0.44
2023-02-04T11:06:57.100Z,-0.67
2023-02-04T11:11:04.752Z,-0.82
2023-02-04T11:15:08.120Z,-0.51
2023-02-04T11:19:14.515Z,-0.40
2023-02-04T11:23:32.294Z,-0.29
2023-02-04T11:27:41.070Z,-0.35
2023-02-04T11:31:49.370Z,-0.13
2023-02-04T11:36:00.490Z,-0.24
2023-02-04T11:40:20.996Z,-0.18
2023-02-04T11:44:25.207Z,-0.18
2023-02-04T11:48:27.239Z,-0.45
2023-02-04T11:52:29.330Z,-0.17
2023-02-04T11:56:31.086Z,0.10
2023-02-04T12:00:34.081Z,-0.30
2023-02-04T12:04:36.104Z,0.05
2023-02-04T12:08:38.380Z,-0.03
2023-02-04T12:12:49.248Z,0.01
2023-02-04T12:16:51.709Z,-0.10
2023-02-04T12:20:55.134Z,-0.15
2023-02-04T12:24:57.078Z,-0.17
2023-02-04T12:29:03.622Z,0.02
2023-02-04T12:33:05.706Z,-0.28
2023-02-04T12:37:07.750Z,-0.14
2023-02-04T12:41:10.279Z,-0.24
2023-02-04T12:45:14.922Z,-0.31
2023-02-04T12:49:16.913Z,-0.19
2023-02-04T12:53:18.907Z,-0.02
2023-02-04T12:57:20.951Z,0.29
2023-02-04T13:01:23.921Z,-0.02
2023-02-04T13:05:26.939Z,-0.03
2023-02-04T13:09:28.595Z,-0.33
2023-02-04T13:13:30.630Z,-0.41
2023-02-04T13:17:32.637Z,-0.06
2023-02-04T13:21:34.588Z,0.16
2023-02-04T13:25:36.498Z,-0.02
2023-02-04T13:29:38.482Z,-0.10
2023-02-04T13:33:40.499Z,0.15
2023-02-04T13:37:42.497Z,0.10
2023-02-04T13:41:44.553Z,-0.08
2023-02-04T13:45:48.842Z,-0.06
2023-02-04T13:49:50.828Z,0.12
2023-02-04T13:53:52.891Z,0.66
2023-02-04T13:57:54.884Z,0.63
2023-02-04T14:01:57.048Z,0.06
2023-02-04T14:05:59.050Z,0.11
2023-02-04T14:10:01.159Z,0.13
2023-02-04T14:14:03.168Z,-0.03
2023-02-04T14:18:05.264Z,-0.29
2023-02-04T14:22:07.853Z,-0.47
2023-02-04T14:26:09.831Z,-0.51
2023-02-04T14:30:23.750Z,-0.49
2023-02-04T14:34:26.017Z,-0.47
2023-02-04T14:38:31.150Z,-0.76
2023-02-04T14:42:33.287Z,-0.77
2023-02-04T14:46:35.266Z,-0.96
2023-02-04T14:50:37.276Z,-1.04
2023-02-04T14:54:39.442Z,-1.17
2023-02-04T14:58:41.767Z,-1.45
2023-02-04T15:02:43.906Z,-1.23
2023-02-04T15:06:46.246Z,-1.18
2023-02-04T15:10:48.269Z,-1.20
2023-02-04T15:14:50.545Z,-1.35
2023-02-04T15:18:52.457Z,-1.47
2023-02-04T15:22:56.425Z,-1.47
2023-02-04T15:26:58.636Z,-1.62
2023-02-04T15:31:02.113Z,-1.51
2023-02-04T15:35:04.542Z,-1.61
2023-02-04T15:39:06.966Z,-1.55
2023-02-04T15:43:08.943Z,-1.61
2023-02-04T15:47:11.044Z,-1.62
2023-02-04T15:51:13.056Z,-1.74
2023-02-04T15:55:15.241Z,-1.71
2023-02-04T15:59:17.238Z,-1.57
2023-02-04T16:03:19.215Z,-1.68
2023-02-04T16:07:21.206Z,-1.56
2023-02-04T16:11:23.331Z,-1.49
2023-02-04T16:15:25.904Z,-1.63
2023-02-04T16:19:28.366Z,-1.61
2023-02-04T16:23:30.344Z,-1.61
2023-02-04T16:27:33.837Z,-1.76
2023-02-04T16:31:35.846Z,-1.73
2023-02-04T16:36:01.004Z,-1.78
2023-02-04T16:40:05.069Z,-1.82
2023-02-04T16:44:07.207Z,-1.91
2023-02-04T16:48:09.292Z,-1.82
2023-02-04T16:52:11.486Z,-1.78
2023-02-04T16:56:13.442Z,-1.82
2023-02-04T17:00:15.721Z,-1.76
2023-02-04T17:04:17.809Z,-2.11
2023-02-04T17:08:19.919Z,-2.35
2023-02-04T17:12:21.961Z,-2.40
2023-02-04T17:16:24.576Z,-2.40
2023-02-04T17:20:26.506Z,-2.49
2023-02-04T17:24:28.677Z,-2.60
2023-02-04T17:28:30.739Z,-2.40
2023-02-04T17:32:32.657Z,-2.54
2023-02-04T17:36:35.144Z,-2.55
2023-02-04T17:40:37.133Z,-2.54
2023-02-04T17:44:39.084Z,-2.69
2023-02-04T17:48:41.038Z,-2.75
2023-02-04T17:52:43.033Z,-2.46
2023-02-04T17:56:45.017Z,-2.72
2023-02-04T18:00:47.866Z,-2.76
2023-02-04T18:04:50.158Z,-2.83
2023-02-04T18:08:52.873Z,-2.64
2023-02-04T18:12:57.113Z,-2.56
2023-02-04T18:17:00.542Z,-2.64
2023-02-04T18:21:31.127Z,-2.66
2023-02-04T18:25:33.777Z,-2.68
2023-02-04T18:29:38.463Z,-2.68
2023-02-04T18:33:41.829Z,-2.40
2023-02-04T18:37:49.416Z,-2.33
2023-02-04T18:41:51.833Z,-2.65
2023-02-04T18:45:54.343Z,-2.57
2023-02-04T18:49:56.533Z,-2.57
2023-02-04T18:54:22.075Z,-2.48
2023-02-04T18:58:33.923Z,-2.60
2023-02-04T19:02:57.663Z,-2.58
2023-02-04T19:07:00.043Z,-2.52
2023-02-04T19:11:02.207Z,-2.69
2023-02-04T19:15:29.730Z,-2.71
2023-02-04T19:19:59.307Z,-2.76
2023-02-04T19:24:23.471Z,-2.54
2023-02-04T19:28:34.840Z,-2.48
2023-02-04T19:32:53.413Z,-2.66
2023-02-04T19:36:56.271Z,-2.82
2023-02-04T19:40:58.323Z,-2.74
2023-02-04T19:45:19.994Z,-2.83
2023-02-04T19:49:24.789Z,-2.97
2023-02-04T19:53:29.833Z,-2.92
2023-02-04T19:57:33.734Z,-2.96
2023-02-04T20:01:35.741Z,-2.93
2023-02-04T20:05:37.725Z,-2.78
2023-02-04T20:09:39.374Z,-2.82
2023-02-04T20:13:41.399Z,-2.88
2023-02-04T20:17:50.558Z,-2.92
2023-02-04T20:22:00.130Z,-2.82
2023-02-04T20:26:02.148Z,-2.80
2023-02-04T20:30:11.924Z,-2.91
2023-02-04T20:34:22.291Z,-3.02
2023-02-04T20:38:24.413Z,-3.13
2023-02-04T20:42:48.213Z,-3.00
2023-02-04T20:46:50.477Z,-3.13
2023-02-04T20:50:54.390Z,-2.93
2023-02-04T20:54:57.389Z,-3.08
2023-02-04T20:59:11.735Z,-3.07
2023-02-04T21:03:26.067Z,-2.93
2023-02-04T21:07:28.075Z,-3.30
2023-02-04T21:11:30.147Z,-3.41
2023-02-04T21:15:33.925Z,-3.47
2023-02-04T21:19:36.964Z,-3.41
2023-02-04T21:23:39.692Z,-3.59
2023-02-04T21:27:41.884Z,-3.68
2023-02-04T21:31:46.487Z,-3.82
2023-02-04T21:35:48.569Z,-3.91
2023-02-04T21:39:50.633Z,-3.90
2023-02-04T21:43:52.689Z,-3.96
2023-02-04T21:47:54.741Z,-3.92
2023-02-04T21:51:56.748Z,-3.80
2023-02-04T21:55:59.471Z,-3.92
2023-02-04T22:00:01.601Z,-3.91
2023-02-04T22:04:03.354Z,-4.06
2023-02-04T22:08:05.317Z,-4.04
2023-02-04T22:12:07.416Z,-4.01
2023-02-04T22:16:09.421Z,-4.06
2023-02-04T22:20:12.633Z,-4.15
2023-02-04T22:24:14.597Z,-4.17
2023-02-04T22:28:16.641Z,-4.37
2023-02-04T22:32:18.689Z,-4.46
2023-02-04T22:36:20.714Z,-4.50
2023-02-04T22:40:22.704Z,-4.48
2023-02-04T22:44:25.677Z,-4.61
2023-02-04T22:48:27.655Z,-4.56
2023-02-04T22:52:29.797Z,-4.44
2023-02-04T22:56:31.744Z,-4.47
2023-02-04T23:00:33.682Z,-4.69
2023-02-04T23:04:36.030Z,-4.63
2023-02-04T23:08:38.015Z,-4.60
2023-02-04T23:12:39.964Z,-4.64
2023-02-04T23:16:42.129Z,-4.70
2023-02-04T23:20:44.288Z,-4.64
2023-02-04T23:24:46.321Z,-4.76
2023-02-04T23:28:48.396Z,-4.72
2023-02-04T23:32:50.369Z,-4.82
2023-02-04T23:36:52.507Z,-4.90
2023-02-04T23:40:57.041Z,-4.75
2023-02-04T23:44:59.199Z,-4.73
2023-02-04T23:49:01.201Z,-4.52
2023-02-04T23:53:03.701Z,-4.55
2023-02-04T23:57:05.924Z,-4.67
